createdAt,value
2023-01-31T00:01:17.893Z,101131.00
2023-01-31T00:04:21.918Z,101122.97
2023-01-31T00:07:24.566Z,101122.91
2023-01-31T00:10:27.244Z,101122.06
2023-01-31T00:13:29.857Z,101116.69
2023-01-31T00:16:33.215Z,101118.44
2023-01-31T00:19:37.341Z,101130.06
2023-01-31T00:22:40.234Z,101126.50
2023-01-31T00:25:42.928Z,101130.06
2023-01-31T00:28:47.102Z,101126.44
2023-01-31T00:31:49.894Z,101125.53
2023-01-31T00:34:54.614Z,101122.84
2023-01-31T00:37:57.316Z,101120.16
2023-01-31T00:41:00.234Z,101116.56
2023-01-31T00:44:04.125Z,101119.19
2023-01-31T00:47:06.846Z,101121.00
2023-01-31T00:50:15.924Z,101125.53
2023-01-31T00:53:23.357Z,101116.59
2023-01-31T00:56:26.775Z,101112.13
2023-01-31T00:59:29.460Z,101113.06
2023-01-31T01:02:32.193Z,101118.44
2023-01-31T01:05:37.385Z,101121.94
2023-01-31T01:08:41.757Z,101125.50
2023-01-31T01:11:44.564Z,101133.53
2023-01-31T01:14:47.938Z,101130.00
2023-01-31T01:17:51.135Z,101129.94
2023-01-31T01:20:55.186Z,101117.41
2023-01-31T01:24:00.555Z,101110.38
2023-01-31T01:27:05.102Z,101128.16
2023-01-31T01:30:09.444Z,101130.81
2023-01-31T01:33:12.144Z,101138.88
2023-01-31T01:36:22.268Z,101132.69
2023-01-31T01:39:26.017Z,101134.38
2023-01-31T01:42:34.574Z,101134.34
2023-01-31T01:45:37.314Z,101139.69
2023-01-31T01:48:40.264Z,101130.75
2023-01-31T01:51:46.090Z,101126.34
2023-01-31T01:54:51.977Z,101128.16
2023-01-31T01:58:01.999Z,101140.66
2023-01-31T02:01:06.912Z,101150.50
2023-01-31T02:04:23.576Z,101150.56
2023-01-31T02:07:28.009Z,101147.84
2023-01-31T02:10:34.427Z,101142.47
2023-01-31T02:13:39.471Z,101144.25
2023-01-31T02:16:42.384Z,101160.34
2023-01-31T02:19:59.144Z,101160.34
2023-01-31T02:23:31.340Z,101165.72
2023-01-31T02:27:05.124Z,101159.47
2023-01-31T02:30:32.037Z,101164.00
2023-01-31T02:33:43.208Z,101174.72
2023-01-31T02:36:59.549Z,101166.69
2023-01-31T02:40:14.683Z,101166.66
2023-01-31T02:43:25.304Z,101165.78
2023-01-31T02:46:35.375Z,101160.44
2023-01-31T02:49:45.641Z,101158.63
2023-01-31T02:52:52.478Z,101155.13
2023-01-31T02:56:18.858Z,101162.28
2023-01-31T02:59:27.010Z,101149.81
2023-01-31T03:02:30.363Z,101154.34
2023-01-31T03:05:34.497Z,101159.75
2023-01-31T03:08:38.321Z,101167.81
2023-01-31T03:11:49.296Z,101166.06
2023-01-31T03:15:02.673Z,101170.53
2023-01-31T03:18:10.336Z,101166.06
2023-01-31T03:21:18.808Z,101176.81
2023-01-31T03:24:26.156Z,101166.97
2023-01-31T03:27:29.611Z,101167.81
2023-01-31T03:30:37.069Z,101175.84
2023-01-31T03:33:43.329Z,101187.47
2023-01-31T03:36:55.143Z,101181.22
2023-01-31T03:40:04.547Z,101192.81
2023-01-31T03:43:13.806Z,101197.28
2023-01-31T03:46:22.634Z,101205.28
2023-01-31T03:49:28.558Z,101225.84
2023-01-31T03:52:37.737Z,101229.41
2023-01-31T03:55:44.620Z,101233.00
2023-01-31T03:58:50.875Z,101237.47
2023-01-31T04:01:58.695Z,101226.63
2023-01-31T04:05:07.122Z,101213.38
2023-01-31T04:08:12.088Z,101199.91
2023-01-31T04:11:16.335Z,101206.16
2023-01-31T04:14:19.432Z,101208.88
2023-01-31T04:17:22.190Z,101210.63
2023-01-31T04:20:24.941Z,101210.69
2023-01-31T04:23:29.075Z,101219.63
2023-01-31T04:26:32.210Z,101224.09
2023-01-31T04:29:34.980Z,101213.34
2023-01-31T04:32:37.726Z,101208.91
2023-01-31T04:35:40.955Z,101202.56
2023-01-31T04:38:44.997Z,101218.72
2023-01-31T04:41:47.667Z,101216.09
2023-01-31T04:44:50.409Z,101214.31
2023-01-31T04:47:53.174Z,101210.69
2023-01-31T04:50:55.845Z,101201.78
2023-01-31T04:53:59.893Z,101200.91
2023-01-31T04:57:03.375Z,101202.69
2023-01-31T05:00:07.592Z,101200.00
2023-01-31T05:03:10.242Z,101186.59
2023-01-31T05:06:13.183Z,101185.72
2023-01-31T05:09:18.018Z,101182.16
2023-01-31T05:12:21.261Z,101175.91
2023-01-31T05:15:23.948Z,101171.41
2023-01-31T05:18:26.960Z,101169.59
2023-01-31T05:21:29.616Z,101185.75
2023-01-31T05:24:34.368Z,101163.38
2023-01-31T05:27:37.009Z,101175.91
2023-01-31T05:30:39.815Z,101159.81
2023-01-31T05:33:43.082Z,101166.09
2023-01-31T05:36:45.747Z,101170.59
2023-01-31T05:39:49.751Z,101168.84
2023-01-31T05:42:56.013Z,101173.38
2023-01-31T05:45:58.767Z,101168.97
2023-01-31T05:49:02.113Z,101177.97
2023-01-31T05:52:04.926Z,101183.41
2023-01-31T05:55:09.872Z,101187.00
2023-01-31T05:58:12.583Z,101179.88
2023-01-31T06:01:15.420Z,101190.59
2023-01-31T06:04:18.113Z,101179.91
2023-01-31T06:07:21.602Z,101180.75
2023-01-31T06:10:25.791Z,101180.78
2023-01-31T06:13:28.456Z,101168.25
2023-01-31T06:16:31.275Z,101176.22
2023-01-31T06:19:34.244Z,101178.91
2023-01-31T06:22:37.002Z,101171.75
2023-01-31T06:25:41.153Z,101171.75
2023-01-31T06:28:46.041Z,101182.47
2023-01-31T06:31:49.093Z,101174.44
2023-01-31T06:34:51.891Z,101178.91
2023-01-31T06:37:55.969Z,101174.44
2023-01-31T06:41:00.147Z,101179.81
2023-01-31T06:44:02.897Z,101181.56
2023-01-31T06:47:05.813Z,101172.59
2023-01-31T06:50:09.232Z,101175.31
2023-01-31T06:53:11.937Z,101185.13
2023-01-31T06:56:15.983Z,101186.06
2023-01-31T06:59:18.624Z,101183.34
2023-01-31T07:02:21.862Z,101178.00
2023-01-31T07:05:24.871Z,101180.66
2023-01-31T07:08:27.565Z,101182.41
2023-01-31T07:11:31.645Z,101184.25
2023-01-31T07:14:34.324Z,101189.59
2023-01-31T07:17:37.031Z,101196.75
2023-01-31T07:20:40.735Z,101203.88
2023-01-31T07:23:43.470Z,101201.16
2023-01-31T07:26:47.570Z,101193.97
2023-01-31T07:29:50.435Z,101200.19
2023-01-31T07:32:53.209Z,101209.97
2023-01-31T07:35:55.857Z,101201.94
2023-01-31T07:39:00.069Z,101209.03
2023-01-31T07:42:04.110Z,101211.72
2023-01-31T07:45:22.418Z,101215.28
2023-01-31T07:48:26.231Z,101216.00
2023-01-31T07:51:28.910Z,101217.75
2023-01-31T07:54:31.973Z,101216.84
2023-01-31T07:57:36.340Z,101222.25
2023-01-31T08:00:56.733Z,101194.59
2023-01-31T08:04:10.701Z,101223.19
2023-01-31T08:07:21.225Z,101222.25
2023-01-31T08:10:23.877Z,101217.78
2023-01-31T08:13:27.948Z,101220.47
2023-01-31T08:16:32.026Z,101219.56
2023-01-31T08:19:35.328Z,101224.03
2023-01-31T08:22:38.231Z,101220.47
2023-01-31T08:25:41.009Z,101217.78
2023-01-31T08:28:46.366Z,101215.94
2023-01-31T08:31:51.155Z,101221.25
2023-01-31T08:34:54.824Z,101214.84
2023-01-31T08:38:10.322Z,101216.53
2023-01-31T08:41:20.026Z,101212.00
2023-01-31T08:44:24.091Z,101213.69
2023-01-31T08:47:26.878Z,101218.19
2023-01-31T08:50:32.740Z,101216.41
2023-01-31T08:53:36.539Z,101212.81
2023-01-31T08:56:39.204Z,101218.09
2023-01-31T08:59:43.322Z,101219.06
2023-01-31T09:02:47.443Z,101223.53
2023-01-31T09:05:50.156Z,101228.94
2023-01-31T09:08:52.846Z,101219.06
2023-01-31T09:11:55.550Z,101215.47
2023-01-31T09:14:59.539Z,101216.31
2023-01-31T09:18:02.263Z,101211.84
2023-01-31T09:21:06.097Z,101228.78
2023-01-31T09:24:11.947Z,101235.91
2023-01-31T09:27:14.646Z,101227.84
2023-01-31T09:30:19.341Z,101211.75
2023-01-31T09:33:22.747Z,101209.00
2023-01-31T09:36:25.886Z,101204.47
2023-01-31T09:39:28.593Z,101215.31
2023-01-31T09:42:36.148Z,101217.22
2023-01-31T09:45:44.033Z,101215.50
2023-01-31T09:48:52.038Z,101200.28
2023-01-31T09:51:59.598Z,101204.81
2023-01-31T09:55:03.226Z,101194.16
2023-01-31T09:58:15.246Z,101209.50
2023-01-31T10:01:25.748Z,101198.78
2023-01-31T10:04:44.033Z,101204.13
2023-01-31T10:07:54.725Z,101194.28
2023-01-31T10:11:02.160Z,101202.81
2023-01-31T10:14:18.782Z,101195.13
2023-01-31T10:17:28.021Z,101175.19
2023-01-31T10:20:37.225Z,101179.19
2023-01-31T10:23:45.576Z,101185.13
2023-01-31T10:26:52.844Z,101165.41
2023-01-31T10:29:58.951Z,101175.94
2023-01-31T10:33:18.341Z,101169.59
2023-01-31T10:36:29.453Z,101163.31
2023-01-31T10:39:35.243Z,101179.66
2023-01-31T10:42:40.566Z,101179.84
2023-01-31T10:45:43.375Z,101173.69
2023-01-31T10:48:49.323Z,101161.28
2023-01-31T10:52:08.762Z,101157.69
2023-01-31T10:55:30.959Z,101147.75
2023-01-31T10:58:35.271Z,101136.00
2023-01-31T11:01:38.520Z,101117.16
2023-01-31T11:04:43.903Z,101131.53
2023-01-31T11:07:47.430Z,101132.38
2023-01-31T11:10:52.775Z,101116.22
2023-01-31T11:13:58.325Z,101118.06
2023-01-31T11:17:06.295Z,101106.41
2023-01-31T11:20:22.513Z,101096.59
2023-01-31T11:23:27.688Z,101093.94
2023-01-31T11:26:33.259Z,101086.78
2023-01-31T11:29:39.167Z,101081.41
2023-01-31T11:32:44.701Z,101085.00
2023-01-31T11:35:53.145Z,101061.72
2023-01-31T11:38:55.919Z,101069.75
2023-01-31T11:41:59.489Z,101053.53
2023-01-31T11:45:03.683Z,101041.84
2023-01-31T11:48:12.046Z,101049.00
2023-01-31T11:51:27.797Z,101047.28
2023-01-31T11:54:33.241Z,101041.88
2023-01-31T11:57:37.562Z,101034.69
2023-01-31T12:00:53.650Z,101013.16
2023-01-31T12:04:03.693Z,101029.00
2023-01-31T12:07:23.394Z,101030.81
2023-01-31T12:10:34.589Z,101026.19
2023-01-31T12:13:48.083Z,101036.00
2023-01-31T12:16:51.818Z,101000.28
2023-01-31T12:20:27.541Z,101009.28
2023-01-31T12:23:40.715Z,101009.41
2023-01-31T12:26:48.873Z,101002.38
2023-01-31T12:30:17.045Z,101025.75
2023-01-31T12:33:36.537Z,101009.72
2023-01-31T12:36:54.476Z,101004.38
2023-01-31T12:40:25.665Z,100988.47
2023-01-31T12:43:54.937Z,101001.03
2023-01-31T12:47:18.294Z,100996.75
2023-01-31T12:50:38.921Z,100990.59
2023-01-31T12:53:55.095Z,101003.09
2023-01-31T12:57:12.944Z,100984.38
2023-01-31T13:00:28.079Z,100943.00
2023-01-31T13:03:50.039Z,100936.72
2023-01-31T13:06:58.033Z,100942.06
2023-01-31T13:10:03.147Z,100924.97
2023-01-31T13:13:17.149Z,100941.19
2023-01-31T13:16:22.879Z,100928.63
2023-01-31T13:19:30.803Z,100915.16
2023-01-31T13:22:41.759Z,100916.94
2023-01-31T13:25:50.796Z,100906.13
2023-01-31T13:29:00.641Z,100897.13
2023-01-31T13:32:06.126Z,100877.34
2023-01-31T13:35:17.872Z,100881.78
2023-01-31T13:38:22.104Z,100884.56
2023-01-31T13:41:29.326Z,100865.75
2023-01-31T13:44:33.649Z,100854.22
2023-01-31T13:47:46.125Z,100861.25
2023-01-31T13:50:54.314Z,100860.34
2023-01-31T13:54:00.527Z,100870.25
2023-01-31T13:57:04.780Z,100859.47
2023-01-31T14:00:25.721Z,100862.06
2023-01-31T14:03:28.529Z,100854.09
2023-01-31T14:06:55.436Z,100854.97
2023-01-31T14:10:37.893Z,100848.69
2023-01-31T14:13:44.351Z,100853.94
2023-01-31T14:16:51.717Z,100859.28
2023-01-31T14:20:06.903Z,100862.00
2023-01-31T14:23:45.409Z,100863.81
2023-01-31T14:26:55.756Z,100874.47
2023-01-31T14:30:10.395Z,100858.44
2023-01-31T14:33:24.355Z,100864.75
2023-01-31T14:36:43.696Z,100860.38
2023-01-31T14:40:11.492Z,100873.72
2023-01-31T14:43:31.662Z,100879.28
2023-01-31T14:46:46.039Z,100867.81
2023-01-31T14:50:08.482Z,100887.38
2023-01-31T14:53:39.809Z,100872.19
2023-01-31T14:56:54.999Z,100872.22
2023-01-31T15:00:01.978Z,100864.22
2023-01-31T15:03:09.042Z,100871.34
2023-01-31T15:06:16.607Z,100846.38
2023-01-31T15:09:38.512Z,100867.84
2023-01-31T15:12:55.696Z,100866.91
2023-01-31T15:15:59.029Z,100869.66
2023-01-31T15:19:08.555Z,100877.72
2023-01-31T15:22:13.511Z,100879.47
2023-01-31T15:25:27.609Z,100880.38
2023-01-31T15:28:34.858Z,100874.13
2023-01-31T15:31:42.206Z,100872.47
2023-01-31T15:34:54.464Z,100874.09
2023-01-31T15:38:03.796Z,100862.44
2023-01-31T15:41:18.319Z,100877.72
2023-01-31T15:44:23.527Z,100879.50
2023-01-31T15:47:26.375Z,100889.41
2023-01-31T15:50:31.302Z,100895.75
2023-01-31T15:53:35.326Z,100883.22
2023-01-31T15:56:41.496Z,100885.81
2023-01-31T15:59:48.051Z,100885.91
2023-01-31T16:03:00.086Z,100882.38
2023-01-31T16:06:04.779Z,100890.47
2023-01-31T16:09:25.186Z,100895.00
2023-01-31T16:12:29.033Z,100895.91
2023-01-31T16:15:33.089Z,100890.53
2023-01-31T16:18:37.787Z,100895.91
2023-01-31T16:21:42.695Z,100892.34
2023-01-31T16:24:55.621Z,100905.78
2023-01-31T16:28:02.332Z,100900.38
2023-01-31T16:31:07.748Z,100885.16
2023-01-31T16:34:23.601Z,100878.88
2023-01-31T16:37:33.215Z,100884.25
2023-01-31T16:40:45.873Z,100877.97
2023-01-31T16:43:52.543Z,100888.78
2023-01-31T16:46:55.481Z,100887.88
2023-01-31T16:50:41.963Z,100879.81
2023-01-31T16:53:45.859Z,100876.22
2023-01-31T16:57:07.200Z,100869.94
2023-01-31T17:00:36.159Z,100879.81
2023-01-31T17:03:39.842Z,100872.66
2023-01-31T17:06:43.200Z,100889.66
2023-01-31T17:09:47.575Z,100883.38
2023-01-31T17:12:52.338Z,100893.34
2023-01-31T17:15:55.054Z,100901.38
2023-01-31T17:18:57.732Z,100897.72
2023-01-31T17:22:00.387Z,100905.84
2023-01-31T17:25:03.315Z,100893.31
2023-01-31T17:28:08.160Z,100895.94
2023-01-31T17:31:18.882Z,100899.47
2023-01-31T17:34:21.580Z,100903.09
2023-01-31T17:37:31.596Z,100887.75
2023-01-31T17:40:35.269Z,100877.94
2023-01-31T17:43:39.582Z,100871.66
2023-01-31T17:46:43.094Z,100885.16
2023-01-31T17:49:45.891Z,100891.41
2023-01-31T17:52:48.798Z,100894.13
2023-01-31T17:55:51.797Z,100894.03
2023-01-31T17:58:55.890Z,100891.41
2023-01-31T18:02:00.566Z,100879.72
2023-01-31T18:05:04.732Z,100881.53
2023-01-31T18:08:07.440Z,100885.03
2023-01-31T18:11:12.144Z,100885.91
2023-01-31T18:14:16.248Z,100896.66
2023-01-31T18:17:20.183Z,100902.91
2023-01-31T18:20:22.961Z,100898.38
2023-01-31T18:23:25.775Z,100902.00
2023-01-31T18:26:29.384Z,100897.56
2023-01-31T18:29:33.517Z,100898.41
2023-01-31T18:32:36.486Z,100898.47
2023-01-31T18:35:39.166Z,100892.22
2023-01-31T18:38:43.634Z,100874.44
2023-01-31T18:41:46.468Z,100885.13
2023-01-31T18:44:50.465Z,100886.97
2023-01-31T18:47:53.254Z,100884.38
2023-01-31T18:50:56.241Z,100878.06
2023-01-31T18:53:59.066Z,100881.69
2023-01-31T18:57:02.237Z,100886.19
2023-01-31T19:00:07.336Z,100891.56
2023-01-31T19:03:10.282Z,100893.34
2023-01-31T19:06:14.960Z,100899.59
2023-01-31T19:09:18.457Z,100887.84
2023-01-31T19:12:21.389Z,100876.31
2023-01-31T19:15:27.255Z,100884.28
2023-01-31T19:18:30.310Z,100886.97
2023-01-31T19:21:34.823Z,100883.31
2023-01-31T19:24:37.525Z,100882.38
2023-01-31T19:27:41.397Z,100879.66
2023-01-31T19:30:45.482Z,100884.13
2023-01-31T19:33:50.103Z,100882.31
2023-01-31T19:36:52.866Z,100884.13
2023-01-31T19:39:55.715Z,100878.72
2023-01-31T19:42:58.834Z,100895.75
2023-01-31T19:46:03.356Z,100895.75
2023-01-31T19:49:06.771Z,100890.28
2023-01-31T19:52:09.640Z,100882.31
2023-01-31T19:55:12.563Z,100888.63
2023-01-31T19:58:15.341Z,100900.25
2023-01-31T20:01:19.911Z,100899.38
2023-01-31T20:04:22.840Z,100895.66
2023-01-31T20:07:26.954Z,100884.97
2023-01-31T20:10:31.130Z,100893.94
2023-01-31T20:13:33.911Z,100885.91
2023-01-31T20:16:38.019Z,100876.03
2023-01-31T20:19:41.088Z,100870.63
2023-01-31T20:22:43.912Z,100859.06
2023-01-31T20:25:49.014Z,100875.00
2023-01-31T20:28:51.769Z,100885.00
2023-01-31T20:31:55.942Z,100877.69
2023-01-31T20:35:00.347Z,100880.38
2023-01-31T20:38:03.084Z,100879.50
2023-01-31T20:41:07.193Z,100879.50
2023-01-31T20:44:10.126Z,100875.88
2023-01-31T20:47:14.337Z,100874.00
2023-01-31T20:50:17.687Z,100882.03
2023-01-31T20:53:21.202Z,100882.09
2023-01-31T20:56:23.855Z,100883.09
2023-01-31T20:59:26.784Z,100883.06
2023-01-31T21:02:31.030Z,100874.16
2023-01-31T21:05:38.541Z,100888.47
2023-01-31T21:08:41.885Z,100892.94
2023-01-31T21:11:45.116Z,100903.66
2023-01-31T21:14:48.495Z,100880.59
2023-01-31T21:17:53.074Z,100893.81
2023-01-31T21:20:56.336Z,100898.31
2023-01-31T21:24:00.119Z,100897.38
2023-01-31T21:27:04.264Z,100903.72
2023-01-31T21:30:09.330Z,100893.94
2023-01-31T21:33:15.195Z,100885.78
2023-01-31T21:36:20.938Z,100879.47
2023-01-31T21:39:24.091Z,100858.91
2023-01-31T21:42:27.126Z,100840.03
2023-01-31T21:45:42.648Z,100856.09
2023-01-31T21:48:47.369Z,100865.91
2023-01-31T21:51:50.736Z,100872.19
2023-01-31T21:54:53.823Z,100866.75
2023-01-31T21:57:56.938Z,100852.41
2023-01-31T22:01:05.116Z,100849.66
2023-01-31T22:04:09.800Z,100860.34
2023-01-31T22:07:12.928Z,100824.81
2023-01-31T22:10:16.172Z,100860.34
2023-01-31T22:13:19.306Z,100852.13
2023-01-31T22:16:25.552Z,100864.69
2023-01-31T22:19:30.253Z,100862.91
2023-01-31T22:22:33.448Z,100867.34
2023-01-31T22:25:37.719Z,100868.25
2023-01-31T22:28:41.666Z,100860.22
2023-01-31T22:31:45.440Z,100862.00
2023-01-31T22:34:49.997Z,100848.59
2023-01-31T22:37:53.080Z,100855.00
2023-01-31T22:40:58.477Z,100849.63
2023-01-31T22:44:01.838Z,100842.44
2023-01-31T22:47:05.027Z,100827.16
2023-01-31T22:50:12.568Z,100831.69
2023-01-31T22:53:17.373Z,100830.69
2023-01-31T22:56:23.122Z,100820.13
2023-01-31T22:59:26.264Z,100806.56
2023-01-31T23:02:29.642Z,100811.94
2023-01-31T23:05:34.303Z,100808.38
2023-01-31T23:08:37.400Z,100811.94
2023-01-31T23:11:40.888Z,100809.16
2023-01-31T23:14:43.965Z,100804.59
2023-01-31T23:17:47.552Z,100808.22
2023-01-31T23:20:52.114Z,100803.84
2023-01-31T23:23:55.048Z,100811.03
2023-01-31T23:26:58.098Z,100807.47
2023-01-31T23:30:01.340Z,100814.66
2023-01-31T23:33:04.507Z,100814.53
2023-01-31T23:36:09.719Z,100810.19
2023-01-31T23:39:12.910Z,100816.41
2023-01-31T23:42:16.503Z,100809.28
2023-01-31T23:45:19.687Z,100796.75
2023-01-31T23:48:22.671Z,100800.34
2023-01-31T23:51:28.636Z,100800.41
2023-01-31T23:54:31.789Z,100790.59
2023-01-31T23:57:35.002Z,100786.16
